createdAt,value
2019-04-23T00:01:25.429Z,3.17
2019-04-23T00:03:28.474Z,3.10
2019-04-23T00:06:15.167Z,3.37
2019-04-23T00:08:43.370Z,3.37
2019-04-23T00:11:05.655Z,3.40
2019-04-23T00:13:39.249Z,3.80
2019-04-23T00:16:24.797Z,3.10
2019-04-23T00:18:45.160Z,3.37
2019-04-23T00:21:23.544Z,3.33
2019-04-23T00:24:03.086Z,3.47
2019-04-23T00:29:06.693Z,3.07
2019-04-23T00:31:44.547Z,3.30
2019-04-23T00:34:19.306Z,3.43
2019-04-23T00:36:51.425Z,3.13
2019-04-23T00:39:34.351Z,3.10
2019-04-23T00:42:10.472Z,3.40
2019-04-23T00:44:40.352Z,3.20
2019-04-23T00:47:00.785Z,3.00
2019-04-23T00:49:59.998Z,3.03
2019-04-23T00:52:07.436Z,2.83
2019-04-23T00:54:39.445Z,3.00
2019-04-23T00:59:53.655Z,3.73
2019-04-23T01:02:22.988Z,2.87
2019-04-23T01:05:07.234Z,3.47
2019-04-23T01:10:15.107Z,3.60
2019-04-23T01:12:46.660Z,3.20
2019-04-23T01:15:26.042Z,2.90
2019-04-23T01:18:14.179Z,3.17
2019-04-23T01:20:52.713Z,3.20
2019-04-23T01:23:32.249Z,3.53
2019-04-23T01:26:34.313Z,3.33
2019-04-23T01:29:06.743Z,3.67
2019-04-23T01:31:47.861Z,3.63
2019-04-23T01:34:21.818Z,2.93
2019-04-23T01:36:54.664Z,3.50
2019-04-23T01:39:40.449Z,3.23
2019-04-23T01:41:57.423Z,3.27
2019-04-23T01:44:37.463Z,4.20
2019-04-23T01:47:11.582Z,3.70
2019-04-23T01:49:59.677Z,3.63
2019-04-23T01:52:24.899Z,3.70
2019-04-23T01:54:52.821Z,3.83
2019-04-23T01:57:28.833Z,3.40
2019-04-23T01:59:58.346Z,3.70
2019-04-23T02:02:26.183Z,3.80
2019-04-23T02:05:08.976Z,3.57
2019-04-23T02:07:45.887Z,3.40
2019-04-23T02:10:18.295Z,3.53
2019-04-23T02:12:42.271Z,3.80
2019-04-23T02:15:33.151Z,3.90
2019-04-23T02:18:05.476Z,3.60
2019-04-23T02:20:50.977Z,3.63
2019-04-23T02:25:56.890Z,3.67
2019-04-23T02:28:29.232Z,4.17
2019-04-23T02:38:45.259Z,3.97
2019-04-23T02:43:57.052Z,4.10
2019-04-23T02:46:17.706Z,4.00
2019-04-23T02:48:56.614Z,4.67
2019-04-23T02:51:37.062Z,4.10
2019-04-23T02:54:16.399Z,4.10
2019-04-23T02:59:21.829Z,3.80
2019-04-23T03:02:48.247Z,3.60
2019-04-23T03:04:45.764Z,4.17
2019-04-23T03:09:38.745Z,4.23
2019-04-23T03:12:08.280Z,3.83
2019-04-23T03:14:33.052Z,4.30
2019-04-23T03:17:10.633Z,4.50
2019-04-23T03:19:59.071Z,4.20
2019-04-23T03:22:47.458Z,4.40
2019-04-23T03:25:25.538Z,4.23
2019-04-23T03:30:53.081Z,4.43
2019-04-23T03:38:41.670Z,4.50
2019-04-23T03:40:56.813Z,4.33
2019-04-23T03:43:41.154Z,4.47
2019-04-23T03:48:59.561Z,4.17
2019-04-23T03:57:32.763Z,4.90
2019-04-23T04:05:42.189Z,3.90
2019-04-23T04:08:15.995Z,4.40
2019-04-23T04:10:52.385Z,4.07
2019-04-23T04:13:24.368Z,4.30
2019-04-23T04:15:55.685Z,4.37
2019-04-23T04:18:33.015Z,4.47
2019-04-23T04:26:13.424Z,4.10
2019-04-23T04:31:54.742Z,4.57
2019-04-23T04:36:21.701Z,4.50
2019-04-23T04:41:40.372Z,4.43
2019-04-23T04:46:47.760Z,3.97
2019-04-23T04:49:27.364Z,4.40
2019-04-23T04:56:56.521Z,4.27
2019-04-23T04:59:24.572Z,4.23
2019-04-23T05:02:01.217Z,4.70
2019-04-23T05:04:30.624Z,4.70
2019-04-23T05:07:01.897Z,4.60
2019-04-23T05:09:29.516Z,4.80
2019-04-23T05:12:09.141Z,4.43
2019-04-23T05:14:33.723Z,4.47
2019-04-23T05:16:56.639Z,4.63
2019-04-23T05:19:45.844Z,4.57
2019-04-23T05:22:02.928Z,4.40
2019-04-23T05:24:28.731Z,5.10
2019-04-23T05:27:00.976Z,4.80
2019-04-23T05:29:23.318Z,5.40
2019-04-23T05:31:52.951Z,4.73
2019-04-23T05:34:23.934Z,4.60
2019-04-23T05:37:15.954Z,5.10
2019-04-23T05:39:35.805Z,5.10
2019-04-23T05:41:53.666Z,4.97
2019-04-23T05:44:29.648Z,5.03
2019-04-23T05:46:59.641Z,5.03
2019-04-23T05:49:24.759Z,4.43
2019-04-23T05:56:55.147Z,4.73
2019-04-23T05:59:45.302Z,5.40
2019-04-23T06:01:57.036Z,5.00
2019-04-23T06:04:31.511Z,4.83
2019-04-23T06:09:30.375Z,4.37
2019-04-23T06:12:07.628Z,4.87
2019-04-23T06:14:40.280Z,5.30
2019-04-23T06:17:07.949Z,5.10
2019-04-23T06:19:36.784Z,5.13
2019-04-23T06:22:28.853Z,4.83
2019-04-23T06:27:13.406Z,5.13
2019-04-23T06:29:46.532Z,5.10
2019-04-23T06:32:06.413Z,5.20
2019-04-23T06:34:43.488Z,5.13
2019-04-23T06:37:09.809Z,4.53
2019-04-23T06:39:45.962Z,5.30
2019-04-23T06:42:23.416Z,4.77
2019-04-23T06:44:45.509Z,5.27
2019-04-23T06:49:54.640Z,5.63
2019-04-23T06:52:21.692Z,5.33
2019-04-23T06:55:09.074Z,5.30
2019-04-23T07:13:47.174Z,4.80
2019-04-23T07:16:17.902Z,5.00
2019-04-23T07:48:13.245Z,4.77
2019-04-23T07:50:48.042Z,4.40
2019-04-23T07:55:56.890Z,4.90
2019-04-23T07:58:25.768Z,4.57
2019-04-23T08:00:52.781Z,4.70
2019-04-23T08:03:27.368Z,4.90
2019-04-23T08:08:26.419Z,5.17
2019-04-23T08:13:53.516Z,4.80
2019-04-23T08:18:49.180Z,4.87
2019-04-23T08:21:16.194Z,4.87
2019-04-23T08:23:58.209Z,4.87
2019-04-23T08:26:39.204Z,4.43
2019-04-23T08:29:15.411Z,3.97
2019-04-23T08:31:50.113Z,4.77
2019-04-23T08:34:25.523Z,4.93
2019-04-23T08:36:50.149Z,4.77
2019-04-23T08:39:18.138Z,4.60
2019-04-23T08:44:27.308Z,4.70
2019-04-23T08:47:05.214Z,4.73
2019-04-23T08:52:10.127Z,4.63
2019-04-23T08:54:48.209Z,4.47
2019-04-23T08:59:39.357Z,5.13
2019-04-23T09:04:45.673Z,4.30
2019-04-23T09:07:15.706Z,5.63
2019-04-23T09:12:06.812Z,4.83
2019-04-23T09:14:38.262Z,5.03
2019-04-23T09:17:10.673Z,4.23
2019-04-23T09:19:42.824Z,4.50
2019-04-23T09:22:14.553Z,4.70
2019-04-23T09:24:41.547Z,4.53
2019-04-23T09:27:16.009Z,4.60
2019-04-23T09:29:45.673Z,5.10
2019-04-23T09:32:22.350Z,4.40
2019-04-23T09:43:12.171Z,5.20
2019-04-23T09:46:06.401Z,4.60
2019-04-23T09:48:41.111Z,4.57
2019-04-23T09:51:06.197Z,5.17
2019-04-23T09:56:01.133Z,4.90
2019-04-23T09:58:30.072Z,4.73
2019-04-23T10:01:19.954Z,4.87
2019-04-23T10:03:33.984Z,4.73
2019-04-23T10:05:59.797Z,4.50
2019-04-23T10:08:27.052Z,5.13
2019-04-23T10:10:49.272Z,4.87
2019-04-23T10:13:18.185Z,4.40
2019-04-23T10:15:49.630Z,5.80
2019-04-23T10:18:39.338Z,4.73
2019-04-23T10:21:11.204Z,5.10
2019-04-23T10:23:41.273Z,4.87
2019-04-23T10:26:16.417Z,4.70
2019-04-23T10:29:09.904Z,5.40
2019-04-23T10:32:02.053Z,4.47
2019-04-23T10:34:46.135Z,4.30
2019-04-23T10:37:31.428Z,4.47
2019-04-23T10:40:04.931Z,4.17
2019-04-23T10:42:43.229Z,5.53
2019-04-23T10:52:07.047Z,5.23
2019-04-23T10:57:22.604Z,5.00
2019-04-23T11:02:47.343Z,4.83
2019-04-23T11:05:29.195Z,4.93
2019-04-23T11:07:47.210Z,4.80
2019-04-23T11:10:34.390Z,4.63
2019-04-23T11:13:21.630Z,4.53
2019-04-23T11:16:27.587Z,4.40
2019-04-23T11:18:46.771Z,4.43
2019-04-23T11:24:20.858Z,4.17
2019-04-23T11:26:51.511Z,4.97
2019-04-23T11:29:27.901Z,4.67
2019-04-23T11:32:06.648Z,4.20
2019-04-23T11:37:37.932Z,4.23
2019-04-23T11:40:03.782Z,4.73
2019-04-23T11:45:41.684Z,4.67
2019-04-23T11:51:32.355Z,4.33
2019-04-23T11:53:36.108Z,3.90
2019-04-23T11:56:46.729Z,4.70
2019-04-23T11:59:10.211Z,4.67
2019-04-23T12:01:56.467Z,4.50
2019-04-23T12:12:55.651Z,5.13
2019-04-23T12:15:49.952Z,5.07
2019-04-23T12:21:28.004Z,5.63
2019-04-23T12:24:29.168Z,5.77
2019-04-23T12:26:56.545Z,5.23
2019-04-23T12:35:29.462Z,5.10
2019-04-23T12:40:59.225Z,5.30
2019-04-23T13:37:20.129Z,5.37
2019-04-23T15:58:00.883Z,5.27
2019-04-23T16:00:39.710Z,6.03
2019-04-23T16:02:42.101Z,4.93
2019-04-23T16:05:16.021Z,4.50
2019-04-23T16:08:26.462Z,5.03
2019-04-23T16:11:17.129Z,4.97
2019-04-23T16:16:37.375Z,4.53
2019-04-23T16:19:13.698Z,5.00
2019-04-23T16:21:51.403Z,4.70
2019-04-23T16:24:14.873Z,4.43
2019-04-23T16:26:55.992Z,4.47
2019-04-23T16:29:48.856Z,4.53
2019-04-23T16:35:19.799Z,4.57
2019-04-23T16:37:53.528Z,4.63
2019-04-23T16:40:19.947Z,5.60
2019-04-23T16:42:48.259Z,5.07
2019-04-23T16:45:23.349Z,5.00
2019-04-23T16:48:09.350Z,5.33
2019-04-23T16:51:02.686Z,5.13
2019-04-23T16:53:25.244Z,4.97
2019-04-23T16:56:05.482Z,4.97
2019-04-23T17:01:17.177Z,4.83
2019-04-23T17:03:59.981Z,4.77
2019-04-23T17:06:27.162Z,4.27
2019-04-23T17:08:57.437Z,4.70
2019-04-23T17:11:34.290Z,5.07
2019-04-23T17:14:08.092Z,4.60
2019-04-23T17:16:38.575Z,4.90
2019-04-23T17:19:23.419Z,5.30
2019-04-23T17:21:55.225Z,5.17
2019-04-23T17:24:25.977Z,5.30
2019-04-23T17:26:57.248Z,4.97
2019-04-23T17:29:24.826Z,4.97
2019-04-23T17:31:45.422Z,5.03
2019-04-23T17:34:30.197Z,5.87
2019-04-23T17:39:32.545Z,4.83
2019-04-23T17:42:22.515Z,4.43
2019-04-23T17:44:51.504Z,4.60
2019-04-23T17:47:27.286Z,4.97
2019-04-23T17:50:03.567Z,5.37
2019-04-23T17:52:26.235Z,5.17
2019-04-23T17:54:57.059Z,5.53
2019-04-23T17:57:24.315Z,5.30
2019-04-23T18:00:14.424Z,5.40
2019-04-23T18:05:04.848Z,5.77
2019-04-23T18:07:38.316Z,5.57
2019-04-23T18:10:13.279Z,5.20
2019-04-23T18:12:38.871Z,5.90
2019-04-23T18:15:02.903Z,5.80
2019-04-23T18:17:34.340Z,5.53
2019-04-23T18:20:05.249Z,5.03
2019-04-23T18:27:46.860Z,5.70
2019-04-23T19:46:05.554Z,5.17
2019-04-23T19:48:36.103Z,4.67
2019-04-23T19:56:08.738Z,4.13
2019-04-23T19:58:39.737Z,4.40
2019-04-23T20:03:43.782Z,3.73
2019-04-23T20:06:14.974Z,4.20
2019-04-23T20:08:53.283Z,4.17
2019-04-23T20:13:52.669Z,3.97
2019-04-23T20:16:30.540Z,4.20
2019-04-23T20:19:09.950Z,4.10
2019-04-23T20:21:38.827Z,4.90
2019-04-23T20:26:45.943Z,4.43
2019-04-23T20:37:32.087Z,3.97
2019-04-23T20:44:58.956Z,4.43
2019-04-23T20:47:48.460Z,4.20
2019-04-23T20:50:04.126Z,4.00
2019-04-23T20:52:40.773Z,3.93
2019-04-23T20:55:17.329Z,4.80
2019-04-23T20:57:55.624Z,4.40
2019-04-23T21:03:30.803Z,3.73
2019-04-23T21:05:56.109Z,4.27
2019-04-23T21:08:30.903Z,4.30
2019-04-23T21:10:55.385Z,4.10
2019-04-23T21:13:53.537Z,4.33
2019-04-23T21:16:08.544Z,4.03
2019-04-23T21:21:33.526Z,4.13
2019-04-23T21:23:50.231Z,3.60
2019-04-23T21:26:20.054Z,4.83
2019-04-23T21:28:58.712Z,3.77
2019-04-23T21:31:55.538Z,4.30
2019-04-23T21:39:29.658Z,4.13
2019-04-23T21:42:04.848Z,4.50
2019-04-23T21:44:38.584Z,4.27
2019-04-23T21:47:08.994Z,4.00
2019-04-23T21:49:53.780Z,4.67
2019-04-23T21:52:16.385Z,3.90
2019-04-23T21:54:51.610Z,4.40
2019-04-23T21:57:29.496Z,5.00
2019-04-23T22:00:07.979Z,4.13
2019-04-23T22:08:03.490Z,3.67
2019-04-23T22:10:45.604Z,4.30
2019-04-23T22:13:24.914Z,4.67
2019-04-23T22:16:01.376Z,4.20
2019-04-23T22:18:25.227Z,4.23
2019-04-23T22:21:06.577Z,4.37
2019-04-23T22:23:52.952Z,4.50
2019-04-23T22:26:18.637Z,4.23
2019-04-23T22:28:57.812Z,4.10
2019-04-23T22:31:21.411Z,4.50
2019-04-23T22:33:53.781Z,4.67
2019-04-23T22:36:23.067Z,4.43
2019-04-23T22:39:11.534Z,4.37
2019-04-23T22:44:12.055Z,4.43
2019-04-23T22:46:52.471Z,4.63
2019-04-23T22:52:08.800Z,6.07
2019-04-23T22:54:57.287Z,4.30
2019-04-23T22:57:26.179Z,4.00
2019-04-23T23:00:12.960Z,4.10
2019-04-23T23:02:59.482Z,4.20
2019-04-23T23:05:53.872Z,4.10
2019-04-23T23:08:13.397Z,3.80
2019-04-23T23:10:50.744Z,4.03
2019-04-23T23:16:19.958Z,4.97
2019-04-23T23:18:43.462Z,4.67
2019-04-23T23:21:16.385Z,4.70
2019-04-23T23:23:53.276Z,4.53
2019-04-23T23:26:38.526Z,4.53
2019-04-23T23:29:00.790Z,4.60
2019-04-23T23:31:57.801Z,4.83
2019-04-23T23:34:27.733Z,4.53
2019-04-23T23:37:07.190Z,4.70
2019-04-23T23:39:49.738Z,4.77
2019-04-23T23:45:18.376Z,5.10
2019-04-23T23:47:59.518Z,4.90
2019-04-23T23:50:45.848Z,5.13
2019-04-23T23:53:27.628Z,4.93
2019-04-23T23:55:58.690Z,4.90
2019-04-23T23:58:41.076Z,4.93
